Time;durP1;ratioP1;P1;durP2;ratioP2;P2;SDS_P1;SDS_P2;PMS_P1;PMS_P2;Temp;Humidity;BMP_temperature;BMP_pressure;BME280_temperature;BME280_humidity;BME280_pressure;Samples;Min_cycle;Max_cycle;Signal;HPM_P1;HPM_P2
2023/06/29 00:02:06;;;;;;;10.53;6.07;;;;;;;;;;5052532;28;20699;-68
2023/06/29 00:04:34;;;;;;;8.87;6.27;;;;;;;;;;5053087;28;20197;-69
2023/06/29 00:07:02;;;;;;;10.73;6.73;;;;;;;;;;5052280;28;20592;-68
2023/06/29 00:09:29;;;;;;;12.17;6.80;;;;;;;;;;5054226;28;20183;-68
2023/06/29 00:11:55;;;;;;;11.60;6.50;;;;;;;;;;5056654;28;20202;-68
2023/06/29 00:14:21;;;;;;;14.87;6.60;;;;;;;;;;5056787;28;20186;-68
2023/06/29 00:16:50;;;;;;;17.07;6.87;;;;;;;;;;5056351;28;20210;-68
2023/06/29 00:19:16;;;;;;;12.53;7.07;;;;;;;;;;5056412;28;20220;-69
2023/06/29 00:21:42;;;;;;;9.83;6.63;;;;;;;;;;5056529;28;20257;-69
2023/06/29 00:24:11;;;;;;;12.77;7.13;;;;;;;;;;5056381;28;20257;-69
2023/06/29 00:26:37;;;;;;;14.73;6.80;;;;;;;;;;5056288;28;20191;-68
2023/06/29 00:29:03;;;;;;;12.70;6.53;;;;;;;;;;5056345;28;20202;-68
2023/06/29 00:31:29;;;;;;;12.73;7.03;;;;;;;;;;5038292;28;20220;-69
2023/06/29 00:33:55;;;;;;;11.57;6.70;;;;;;;;;;5056203;28;20174;-68
2023/06/29 00:36:21;;;;;;;11.83;6.50;;;;;;;;;;5056628;28;20573;-68
2023/06/29 00:38:47;;;;;;;15.53;6.73;;;;;;;;;;5056043;28;20707;-68
2023/06/29 00:41:12;;;;;;;10.57;6.60;;;;;;;;;;5056120;28;20185;-68
2023/06/29 00:43:38;;;;;;;14.13;7.03;;;;;;;;;;5038184;28;20181;-68
2023/06/29 00:46:08;;;;;;;12.33;6.50;;;;;;;;;;5038062;28;20178;-68
2023/06/29 00:48:37;;;;;;;15.30;6.67;;;;;;;;;;5055856;28;20257;-69
2023/06/29 00:51:06;;;;;;;18.57;7.53;;;;;;;;;;5055927;28;20181;-69
2023/06/29 00:53:32;;;;;;;8.60;6.27;;;;;;;;;;5055746;28;20187;-68
2023/06/29 00:55:58;;;;;;;12.73;6.10;;;;;;;;;;5055766;28;20664;-68
2023/06/29 00:58:25;;;;;;;14.27;7.00;;;;;;;;;;5056008;28;20710;-68
2023/06/29 01:00:51;;;;;;;13.97;7.03;;;;;;;;;;5037903;28;20179;-68
2023/06/29 01:03:17;;;;;;;8.30;6.70;;;;;;;;;;5055687;28;20178;-68
2023/06/29 01:05:45;;;;;;;10.13;6.97;;;;;;;;;;5055563;28;20197;-68
2023/06/29 01:08:17;;;;;;;14.50;6.80;;;;;;;;;;5037398;28;20302;-68
2023/06/29 01:10:45;;;;;;;10.03;7.20;;;;;;;;;;5055476;28;20602;-69
2023/06/29 01:13:11;;;;;;;11.77;7.23;;;;;;;;;;5055803;28;20214;-68
2023/06/29 01:15:38;;;;;;;12.87;7.07;;;;;;;;;;5055661;28;20178;-68
2023/06/29 01:18:04;;;;;;;11.30;7.23;;;;;;;;;;5055506;28;20210;-68
2023/06/29 01:20:33;;;;;;;24.03;6.80;;;;;;;;;;5054885;28;20338;-68
2023/06/29 01:23:05;;;;;;;30.70;8.32;;;;;;;;;;5035832;28;20390;-68
2023/06/29 01:25:32;;;;;;;16.00;6.50;;;;;;;;;;5055586;28;20155;-68
2023/06/29 01:27:58;;;;;;;14.50;6.97;;;;;;;;;;5037454;28;20552;-68
2023/06/29 01:30:26;;;;;;;10.20;6.80;;;;;;;;;;5055112;28;20182;-68
2023/06/29 01:32:52;;;;;;;23.20;7.50;;;;;;;;;;5055106;28;20528;-68
2023/06/29 01:35:18;;;;;;;18.00;6.90;;;;;;;;;;5055428;28;20182;-68
2023/06/29 01:37:53;;;;;;;12.13;6.87;;;;;;;;;;5055117;28;20210;-68
2023/06/29 01:40:22;;;;;;;15.33;7.00;;;;;;;;;;5055259;28;20182;-69
2023/06/29 01:42:49;;;;;;;18.80;7.97;;;;;;;;;;5055575;28;20202;-68
2023/06/29 01:45:17;;;;;;;10.67;6.67;;;;;;;;;;5054885;28;20186;-68
2023/06/29 01:47:43;;;;;;;17.57;7.50;;;;;;;;;;5054808;28;20209;-68
2023/06/29 01:50:09;;;;;;;10.17;7.27;;;;;;;;;;5036947;28;20189;-68
2023/06/29 01:52:35;;;;;;;20.03;7.13;;;;;;;;;;5054777;28;20308;-68
2023/06/29 01:55:01;;;;;;;10.07;7.03;;;;;;;;;;5054963;28;20265;-68
2023/06/29 01:57:27;;;;;;;15.13;7.67;;;;;;;;;;5054729;28;20210;-68
2023/06/29 01:59:53;;;;;;;12.20;7.20;;;;;;;;;;5036682;28;20734;-68
2023/06/29 02:02:19;;;;;;;10.07;7.07;;;;;;;;;;5054815;28;20236;-67
2023/06/29 02:04:45;;;;;;;14.87;7.67;;;;;;;;;;5055016;28;20179;-67
2023/06/29 02:07:11;;;;;;;10.20;7.07;;;;;;;;;;5054414;28;20775;-67
2023/06/29 02:09:37;;;;;;;15.57;7.30;;;;;;;;;;5054613;28;20706;-68
2023/06/29 02:12:03;;;;;;;10.20;6.47;;;;;;;;;;5036609;28;20182;-68
2023/06/29 02:14:29;;;;;;;10.93;7.50;;;;;;;;;;5054890;28;20218;-68
2023/06/29 02:16:55;;;;;;;15.33;7.33;;;;;;;;;;5054238;28;20257;-69
2023/06/29 02:19:21;;;;;;;9.10;6.90;;;;;;;;;;5036548;28;20182;-68
2023/06/29 02:21:47;;;;;;;11.17;6.53;;;;;;;;;;5054557;28;20175;-68
2023/06/29 02:24:13;;;;;;;9.87;6.70;;;;;;;;;;5054255;28;20206;-68
2023/06/29 02:26:39;;;;;;;13.37;8.00;;;;;;;;;;5036184;28;20194;-69
2023/06/29 02:29:05;;;;;;;10.90;7.10;;;;;;;;;;5054632;28;20232;-69
2023/06/29 02:31:31;;;;;;;15.70;8.17;;;;;;;;;;5053969;28;20179;-68
2023/06/29 02:33:57;;;;;;;10.50;7.20;;;;;;;;;;5054580;28;20689;-68
2023/06/29 02:36:23;;;;;;;13.63;7.77;;;;;;;;;;5053886;28;20194;-68
2023/06/29 02:38:49;;;;;;;10.97;7.57;;;;;;;;;;5035929;28;20205;-68
2023/06/29 02:41:15;;;;;;;12.53;7.87;;;;;;;;;;5054039;28;20660;-68
2023/06/29 02:43:41;;;;;;;12.83;7.80;;;;;;;;;;5053812;28;20186;-68
2023/06/29 02:46:07;;;;;;;12.47;7.50;;;;;;;;;;5053908;28;20182;-68
2023/06/29 02:48:33;;;;;;;11.00;7.67;;;;;;;;;;5053829;28;20174;-68
2023/06/29 02:50:59;;;;;;;11.60;7.80;;;;;;;;;;5036101;28;20652;-68
2023/06/29 02:53:25;;;;;;;11.03;7.20;;;;;;;;;;5053669;28;20257;-68
2023/06/29 02:55:51;;;;;;;11.03;7.17;;;;;;;;;;5053435;28;20183;-69
2023/06/29 02:58:17;;;;;;;13.23;7.90;;;;;;;;;;5053643;28;20202;-68
2023/06/29 03:00:43;;;;;;;9.80;7.83;;;;;;;;;;5053773;28;20245;-68
2023/06/29 03:03:09;;;;;;;13.40;7.83;;;;;;;;;;5053462;28;20640;-68
2023/06/29 03:05:35;;;;;;;12.43;7.47;;;;;;;;;;5053585;28;20636;-69
2023/06/29 03:08:01;;;;;;;14.40;7.20;;;;;;;;;;5053104;28;20233;-69
2023/06/29 03:10:27;;;;;;;12.97;7.73;;;;;;;;;;5053386;28;20234;-69
2023/06/29 03:12:53;;;;;;;10.53;7.53;;;;;;;;;;5053252;28;20667;-69
2023/06/29 03:15:19;;;;;;;13.87;8.00;;;;;;;;;;5035328;28;20182;-68
2023/06/29 03:17:44;;;;;;;23.80;14.73;;;;;;;;;;5077131;22;20229;-66
2023/06/29 03:20:13;;;;;;;19.77;12.03;;;;;;;;;;5053622;28;20179;-66
2023/06/29 03:22:39;;;;;;;24.10;16.07;;;;;;;;;;5035484;28;20228;-66
2023/06/29 03:25:06;;;;;;;12.20;9.77;;;;;;;;;;5053458;28;20243;-66
2023/06/29 03:27:32;;;;;;;17.00;11.40;;;;;;;;;;5053510;28;20289;-67
2023/06/29 03:29:58;;;;;;;16.80;8.93;;;;;;;;;;5053524;28;20202;-67
2023/06/29 03:32:24;;;;;;;9.37;7.80;;;;;;;;;;5035474;28;20244;-66
2023/06/29 03:34:50;;;;;;;13.87;8.00;;;;;;;;;;5053441;28;20296;-67
2023/06/29 03:37:16;;;;;;;11.67;7.47;;;;;;;;;;5053196;28;20297;-66
2023/06/29 03:39:42;;;;;;;14.83;7.93;;;;;;;;;;5053778;28;20171;-66
2023/06/29 03:42:08;;;;;;;13.07;7.73;;;;;;;;;;5053209;28;20185;-66
2023/06/29 03:44:34;;;;;;;13.50;8.67;;;;;;;;;;5053142;28;20171;-66
2023/06/29 03:47:00;;;;;;;12.20;8.10;;;;;;;;;;5035429;28;20189;-66
2023/06/29 03:49:26;;;;;;;15.87;7.70;;;;;;;;;;5035330;28;20199;-67
2023/06/29 03:51:52;;;;;;;14.07;8.07;;;;;;;;;;5053322;28;20178;-66
2023/06/29 03:54:18;;;;;;;11.67;7.23;;;;;;;;;;5035451;28;20223;-67
2023/06/29 03:56:44;;;;;;;14.63;8.13;;;;;;;;;;5043986;28;20178;-67
2023/06/29 03:59:10;;;;;;;14.93;7.97;;;;;;;;;;5068237;28;20233;-67
2023/06/29 04:01:35;;;;;;;13.43;8.07;;;;;;;;;;5068059;28;20171;-67
2023/06/29 04:04:01;;;;;;;14.40;7.67;;;;;;;;;;5068717;28;20230;-68
2023/06/29 04:06:27;;;;;;;15.47;8.10;;;;;;;;;;5068676;28;20175;-67
2023/06/29 04:08:53;;;;;;;13.43;8.97;;;;;;;;;;5069893;28;20199;-68
2023/06/29 04:11:19;;;;;;;14.07;8.03;;;;;;;;;;5052076;28;20705;-68
2023/06/29 04:13:45;;;;;;;15.27;7.57;;;;;;;;;;5053917;28;20178;-68
2023/06/29 04:16:11;;;;;;;11.87;8.63;;;;;;;;;;5070047;28;20182;-68
2023/06/29 04:18:37;;;;;;;22.00;9.30;;;;;;;;;;5053266;28;20242;-68
2023/06/29 04:21:03;;;;;;;13.40;7.47;;;;;;;;;;5065329;28;20183;-68
2023/06/29 04:23:29;;;;;;;16.30;8.67;;;;;;;;;;5070178;28;20171;-68
2023/06/29 04:25:55;;;;;;;12.27;8.33;;;;;;;;;;5070516;28;20185;-68
2023/06/29 04:28:21;;;;;;;16.17;8.17;;;;;;;;;;5044439;28;20260;-67
2023/06/29 04:30:47;;;;;;;16.60;10.13;;;;;;;;;;5036858;28;20178;-67
2023/06/29 04:33:15;;;;;;;31.73;16.73;;;;;;;;;;5051286;28;20190;-68
2023/06/29 04:35:41;;;;;;;26.60;15.93;;;;;;;;;;5068858;28;20175;-67
2023/06/29 04:38:11;;;;;;;25.73;13.83;;;;;;;;;;5068456;28;20726;-67
2023/06/29 04:40:40;;;;;;;29.47;16.83;;;;;;;;;;5052160;28;20269;-68
2023/06/29 04:43:06;;;;;;;23.57;12.43;;;;;;;;;;5051554;28;20193;-68
2023/06/29 04:45:33;;;;;;;28.57;15.57;;;;;;;;;;5069215;28;20159;-67
2023/06/29 04:47:59;;;;;;;16.77;10.63;;;;;;;;;;5052373;28;20212;-68
2023/06/29 04:50:25;;;;;;;24.50;15.50;;;;;;;;;;5069565;28;20552;-67
2023/06/29 04:52:55;;;;;;;15.87;10.93;;;;;;;;;;5066507;28;20633;-67
2023/06/29 04:55:21;;;;;;;20.97;10.57;;;;;;;;;;5037257;28;20608;-67
2023/06/29 04:57:47;;;;;;;15.63;9.30;;;;;;;;;;5042267;28;20591;-67
2023/06/29 05:00:14;;;;;;;16.27;9.33;;;;;;;;;;5039757;28;20662;-67
2023/06/29 05:02:40;;;;;;;14.30;10.13;;;;;;;;;;5057292;28;20208;-67
2023/06/29 05:05:06;;;;;;;15.77;9.77;;;;;;;;;;5057588;28;20204;-67
2023/06/29 05:07:32;;;;;;;17.60;9.90;;;;;;;;;;5056976;28;20626;-67
2023/06/29 05:09:58;;;;;;;16.33;8.93;;;;;;;;;;5038897;28;20193;-67
2023/06/29 05:12:25;;;;;;;14.43;8.57;;;;;;;;;;5057190;28;20209;-67
2023/06/29 05:14:51;;;;;;;24.27;9.67;;;;;;;;;;5056936;28;20645;-67
2023/06/29 05:17:19;;;;;;;18.10;9.20;;;;;;;;;;5038106;28;20313;-68
2023/06/29 05:19:45;;;;;;;16.80;8.53;;;;;;;;;;5056389;28;20190;-67
2023/06/29 05:22:11;;;;;;;14.47;8.53;;;;;;;;;;5056222;28;20645;-68
2023/06/29 05:24:38;;;;;;;16.33;8.27;;;;;;;;;;5056616;28;20182;-67
2023/06/29 05:27:04;;;;;;;14.70;8.00;;;;;;;;;;5038285;28;20268;-67
2023/06/29 05:29:30;;;;;;;13.33;8.07;;;;;;;;;;5056056;28;20187;-67
2023/06/29 05:31:56;;;;;;;19.60;8.87;;;;;;;;;;5056371;28;20185;-68
2023/06/29 05:34:22;;;;;;;15.67;8.67;;;;;;;;;;5056559;28;20182;-66
2023/06/29 05:36:48;;;;;;;13.30;8.57;;;;;;;;;;5056325;28;20660;-66
2023/06/29 05:39:14;;;;;;;15.63;9.20;;;;;;;;;;5056213;28;20221;-67
2023/06/29 05:41:40;;;;;;;16.73;10.67;;;;;;;;;;5037846;28;20209;-67
2023/06/29 05:44:06;;;;;;;15.90;10.17;;;;;;;;;;5055768;28;20175;-66
2023/06/29 05:46:35;;;;;;;19.37;10.47;;;;;;;;;;5055603;28;20198;-67
2023/06/29 05:49:02;;;;;;;21.90;11.60;;;;;;;;;;5055242;28;20201;-67
2023/06/29 05:51:28;;;;;;;16.50;10.63;;;;;;;;;;5055473;28;20182;-66
2023/06/29 05:53:54;;;;;;;23.80;10.83;;;;;;;;;;5037514;28;20625;-67
2023/06/29 05:56:20;;;;;;;18.50;10.40;;;;;;;;;;5037817;28;20170;-66
2023/06/29 05:58:47;;;;;;;15.40;9.20;;;;;;;;;;5037833;28;20283;-67
2023/06/29 06:01:13;;;;;;;19.80;10.27;;;;;;;;;;5038268;28;20668;-67
2023/06/29 06:03:39;;;;;;;14.37;9.27;;;;;;;;;;5037489;28;20579;-67
2023/06/29 06:06:05;;;;;;;14.17;9.13;;;;;;;;;;5037301;28;20175;-67
2023/06/29 06:08:31;;;;;;;14.70;9.03;;;;;;;;;;5054669;28;20217;-67
2023/06/29 06:10:57;;;;;;;17.53;9.70;;;;;;;;;;5037192;28;20178;-67
2023/06/29 06:13:23;;;;;;;15.90;10.27;;;;;;;;;;5037212;28;20603;-67
2023/06/29 06:15:49;;;;;;;21.17;10.20;;;;;;;;;;5055290;28;20183;-67
2023/06/29 06:18:15;;;;;;;20.80;10.27;;;;;;;;;;5054525;28;20219;-67
2023/06/29 06:20:41;;;;;;;18.33;10.90;;;;;;;;;;5055251;28;20183;-68
2023/06/29 06:23:07;;;;;;;26.80;11.03;;;;;;;;;;5037016;28;20212;-68
2023/06/29 06:25:33;;;;;;;20.47;10.50;;;;;;;;;;5055291;28;20236;-68
2023/06/29 06:27:59;;;;;;;19.30;11.23;;;;;;;;;;5054800;28;20640;-68
2023/06/29 06:30:25;;;;;;;20.17;10.27;;;;;;;;;;5054791;28;20182;-67
2023/06/29 06:32:51;;;;;;;19.93;11.03;;;;;;;;;;5036895;28;20182;-67
2023/06/29 06:35:17;;;;;;;21.70;10.93;;;;;;;;;;5054903;28;20265;-68
2023/06/29 06:37:43;;;;;;;22.60;11.10;;;;;;;;;;5036986;28;20217;-67
2023/06/29 06:40:09;;;;;;;20.13;11.90;;;;;;;;;;5053668;28;20378;-67
2023/06/29 06:42:35;;;;;;;22.55;12.15;;;;;;;;;;5036688;28;20411;-65
2023/06/29 06:45:03;;;;;;;21.73;13.07;;;;;;;;;;5036071;28;20865;-67
2023/06/29 06:47:31;;;;;;;22.40;12.47;;;;;;;;;;5053204;28;20472;-66
2023/06/29 06:49:57;;;;;;;19.47;11.70;;;;;;;;;;5055005;28;20228;-67
2023/06/29 06:52:23;;;;;;;22.60;12.73;;;;;;;;;;5053272;28;20867;-67
2023/06/29 06:54:49;;;;;;;18.80;12.07;;;;;;;;;;5054035;28;20187;-66
2023/06/29 06:57:15;;;;;;;21.37;11.60;;;;;;;;;;5053854;28;20203;-67
2023/06/29 06:59:41;;;;;;;20.70;13.43;;;;;;;;;;5054308;28;20633;-67
2023/06/29 07:02:07;;;;;;;23.57;14.33;;;;;;;;;;5052816;28;20457;-67
2023/06/29 07:04:33;;;;;;;21.00;13.90;;;;;;;;;;5054335;28;20174;-67
2023/06/29 07:06:59;;;;;;;23.15;15.20;;;;;;;;;;5035020;28;20755;-67
2023/06/29 07:09:25;;;;;;;21.80;13.93;;;;;;;;;;5053830;28;20175;-67
2023/06/29 07:11:51;;;;;;;21.43;13.27;;;;;;;;;;5035922;28;20705;-68
2023/06/29 07:14:17;;;;;;;21.33;14.13;;;;;;;;;;5053788;28;20237;-67
2023/06/29 07:16:43;;;;;;;27.73;14.30;;;;;;;;;;5054106;28;20178;-67
2023/06/29 07:19:11;;;;;;;19.53;14.10;;;;;;;;;;5035369;28;20376;-67
2023/06/29 07:21:38;;;;;;;23.93;14.73;;;;;;;;;;5054082;28;20205;-66
2023/06/29 07:24:04;;;;;;;40.50;15.33;;;;;;;;;;5053611;28;20258;-67
2023/06/29 07:26:30;;;;;;;26.57;14.77;;;;;;;;;;5035715;28;20261;-67
2023/06/29 07:28:55;;;;;;;22.73;14.80;;;;;;;;;;5053497;28;20692;-67
2023/06/29 07:31:25;;;;;;;25.63;14.40;;;;;;;;;;5053794;28;20516;-67
2023/06/29 07:33:53;;;;;;;22.13;14.47;;;;;;;;;;5035573;28;20556;-67
2023/06/29 07:36:19;;;;;;;31.20;14.93;;;;;;;;;;5035694;28;20390;-67
2023/06/29 07:38:45;;;;;;;28.03;15.67;;;;;;;;;;5053533;28;20569;-66
2023/06/29 07:41:12;;;;;;;20.43;14.67;;;;;;;;;;5053264;28;20225;-67
2023/06/29 07:43:40;;;;;;;25.20;14.80;;;;;;;;;;5053304;28;20188;-67
2023/06/29 07:46:06;;;;;;;24.33;14.83;;;;;;;;;;5035388;28;20182;-67
2023/06/29 07:48:31;;;;;;;23.70;15.33;;;;;;;;;;5053674;28;20204;-67
2023/06/29 07:50:57;;;;;;;26.40;14.87;;;;;;;;;;5053475;28;20178;-67
2023/06/29 07:53:23;;;;;;;27.53;14.73;;;;;;;;;;5035616;28;20235;-67
2023/06/29 07:55:49;;;;;;;25.47;15.90;;;;;;;;;;5053537;28;20217;-67
2023/06/29 07:58:15;;;;;;;20.00;13.83;;;;;;;;;;5035295;28;20210;-67
2023/06/29 08:00:41;;;;;;;29.00;13.93;;;;;;;;;;5053454;28;20182;-67
2023/06/29 08:03:07;;;;;;;27.43;14.77;;;;;;;;;;5053333;28;20292;-67
2023/06/29 08:05:33;;;;;;;29.43;14.23;;;;;;;;;;5053384;28;20181;-67
2023/06/29 08:07:59;;;;;;;22.50;15.63;;;;;;;;;;5053115;28;20202;-67
2023/06/29 08:10:25;;;;;;;26.73;14.73;;;;;;;;;;5053437;28;20683;-67
2023/06/29 08:12:52;;;;;;;22.13;14.57;;;;;;;;;;5035189;28;20664;-67
2023/06/29 08:15:18;;;;;;;25.53;15.70;;;;;;;;;;5035166;28;20708;-67
2023/06/29 08:17:44;;;;;;;29.23;13.93;;;;;;;;;;5034962;28;20313;-67
2023/06/29 08:20:12;;;;;;;21.70;15.60;;;;;;;;;;5035373;28;20193;-67
2023/06/29 08:22:38;;;;;;;23.43;14.23;;;;;;;;;;5053579;28;20171;-67
2023/06/29 08:25:04;;;;;;;21.47;14.90;;;;;;;;;;5053056;28;20225;-67
2023/06/29 08:27:30;;;;;;;27.70;14.77;;;;;;;;;;5035178;28;20212;-67
2023/06/29 08:29:56;;;;;;;36.13;16.20;;;;;;;;;;5035550;28;20179;-68
2023/06/29 08:32:22;;;;;;;31.50;16.90;;;;;;;;;;5057174;28;20236;-68
2023/06/29 08:34:48;;;;;;;26.33;15.83;;;;;;;;;;5057162;28;20174;-68
2023/06/29 08:37:15;;;;;;;26.43;15.77;;;;;;;;;;5038789;28;20209;-68
2023/06/29 08:39:41;;;;;;;38.40;17.40;;;;;;;;;;5056569;28;20575;-68
2023/06/29 08:42:07;;;;;;;36.03;17.13;;;;;;;;;;5038856;28;20213;-68
2023/06/29 08:44:33;;;;;;;32.87;18.20;;;;;;;;;;5056519;28;20182;-68
2023/06/29 08:47:00;;;;;;;23.87;16.67;;;;;;;;;;5056750;28;20179;-66
2023/06/29 08:49:27;;;;;;;24.40;16.30;;;;;;;;;;5038451;28;20182;-68
2023/06/29 08:51:55;;;;;;;28.07;16.27;;;;;;;;;;5056551;28;20174;-67
2023/06/29 08:54:21;;;;;;;28.50;17.88;;;;;;;;;;5055322;28;20725;-67
2023/06/29 08:56:47;;;;;;;25.90;16.33;;;;;;;;;;5038418;28;20228;-67
2023/06/29 08:59:13;;;;;;;25.40;17.65;;;;;;;;;;5055154;28;20867;-67
2023/06/29 09:01:40;;;;;;;30.27;18.20;;;;;;;;;;5037279;28;20947;-67
2023/06/29 09:04:06;;;;;;;26.63;16.73;;;;;;;;;;5037437;28;20383;-67
2023/06/29 09:06:32;;;;;;;25.47;16.87;;;;;;;;;;5056732;28;20522;-68
2023/06/29 09:08:59;;;;;;;29.13;16.33;;;;;;;;;;5038462;28;20203;-68
2023/06/29 09:11:25;;;;;;;26.88;18.17;;;;;;;;;;5037065;28;20386;-67
2023/06/29 09:13:51;;;;;;;29.23;17.60;;;;;;;;;;5056074;28;20612;-68
2023/06/29 09:16:21;;;;;;;27.80;16.67;;;;;;;;;;5056510;28;20553;-68
2023/06/29 09:18:54;;;;;;;25.03;16.70;;;;;;;;;;5037992;28;20700;-68
2023/06/29 09:21:21;;;;;;;29.10;16.20;;;;;;;;;;5056802;28;20181;-68
2023/06/29 09:23:47;;;;;;;29.17;20.08;;;;;;;;;;5077196;22;20417;-67
2023/06/29 09:26:13;;;;;;;27.92;20.17;;;;;;;;;;5037166;28;20390;-68
2023/06/29 09:28:45;;;;;;;28.88;19.02;;;;;;;;;;5054621;28;20381;-67
2023/06/29 09:31:12;;;;;;;25.30;18.75;;;;;;;;;;5056162;28;20459;-66
2023/06/29 09:33:38;;;;;;;26.02;18.30;;;;;;;;;;5036803;28;20382;-65
2023/06/29 09:36:07;;;;;;;26.08;18.17;;;;;;;;;;5054860;28;20381;-66
2023/06/29 09:38:34;;;;;;;23.50;18.45;;;;;;;;;;5036519;28;20783;-66
2023/06/29 09:41:02;;;;;;;28.45;19.75;;;;;;;;;;5036374;28;20407;-66
2023/06/29 09:43:29;;;;;;;27.95;19.92;;;;;;;;;;5053853;28;20739;-67
2023/06/29 09:46:07;;;;;;;30.02;19.77;;;;;;;;;;5054839;28;20378;-68
2023/06/29 09:48:33;;;;;;;34.40;20.92;;;;;;;;;;5036232;28;20393;-67
2023/06/29 09:50:59;;;;;;;29.52;20.17;;;;;;;;;;5054383;28;20385;-67
2023/06/29 09:53:29;;;;;;;24.00;19.27;;;;;;;;;;5053990;28;20392;-66
2023/06/29 09:55:56;;;;;;;25.00;17.98;;;;;;;;;;5054073;28;20434;-66
2023/06/29 09:58:22;;;;;;;26.67;18.80;;;;;;;;;;5053828;28;20416;-67
2023/06/29 10:00:49;;;;;;;24.25;18.50;;;;;;;;;;5054095;28;20365;-66
2023/06/29 10:03:15;;;;;;;26.90;18.20;;;;;;;;;;5053780;28;20385;-67
2023/06/29 10:05:41;;;;;;;24.60;18.48;;;;;;;;;;5053687;28;20385;-66
2023/06/29 10:08:08;;;;;;;26.30;19.70;;;;;;;;;;5053790;28;20390;-67
2023/06/29 10:10:35;;;;;;;25.90;20.07;;;;;;;;;;5053722;28;20751;-67
2023/06/29 10:13:04;;;;;;;26.92;20.13;;;;;;;;;;5035736;28;20480;-67
2023/06/29 10:15:30;;;;;;;27.52;20.92;;;;;;;;;;5035742;28;20413;-66
2023/06/29 10:18:00;;;;;;;27.02;20.92;;;;;;;;;;5035456;28;20441;-66
2023/06/29 10:20:27;;;;;;;25.25;20.73;;;;;;;;;;5053718;28;20380;-66
2023/06/29 10:22:55;;;;;;;28.27;21.83;;;;;;;;;;5054004;28;20381;-67
2023/06/29 10:25:22;;;;;;;28.10;20.60;;;;;;;;;;5035577;28;20905;-67
2023/06/29 10:27:49;;;;;;;27.65;21.13;;;;;;;;;;5053975;28;20401;-67
2023/06/29 10:30:24;;;;;;;29.10;22.83;;;;;;;;;;5053730;28;20382;-66
2023/06/29 10:32:50;;;;;;;30.90;23.15;;;;;;;;;;5036141;28;20748;-66
2023/06/29 10:35:16;;;;;;;29.13;23.35;;;;;;;;;;5036413;28;20743;-67
2023/06/29 10:37:43;;;;;;;30.17;24.20;;;;;;;;;;5035461;28;20413;-67
2023/06/29 10:40:16;;;;;;;29.23;23.90;;;;;;;;;;5053287;28;20872;-67
2023/06/29 10:42:42;;;;;;;32.53;24.48;;;;;;;;;;5053051;28;20369;-66
2023/06/29 10:45:21;;;;;;;29.07;22.63;;;;;;;;;;5035055;28;20404;-67
2023/06/29 10:48:00;;;;;;;28.15;23.80;;;;;;;;;;5035106;28;20879;-67
2023/06/29 10:50:29;;;;;;;30.33;24.38;;;;;;;;;;5053243;28;20848;-66
2023/06/29 10:52:59;;;;;;;27.73;24.13;;;;;;;;;;5034950;28;20390;-66
2023/06/29 10:55:27;;;;;;;30.02;24.90;;;;;;;;;;5052006;28;20382;-66
2023/06/29 10:57:54;;;;;;;30.27;24.73;;;;;;;;;;5052840;28;20409;-65
2023/06/29 11:00:21;;;;;;;31.25;24.92;;;;;;;;;;5053051;28;20747;-65
2023/06/29 11:02:48;;;;;;;30.23;25.80;;;;;;;;;;5035161;28;20366;-65
2023/06/29 11:05:14;;;;;;;30.48;24.60;;;;;;;;;;5052617;28;20875;-66
2023/06/29 11:07:41;;;;;;;27.27;24.40;;;;;;;;;;5052912;28;20447;-67
2023/06/29 11:10:07;;;;;;;27.73;24.55;;;;;;;;;;5052565;28;20748;-66
2023/06/29 11:12:33;;;;;;;31.42;24.90;;;;;;;;;;5052572;28;20381;-67
2023/06/29 11:14:59;;;;;;;29.38;24.67;;;;;;;;;;5052496;28;20815;-65
2023/06/29 11:17:25;;;;;;;30.63;24.70;;;;;;;;;;5034614;28;20413;-66
2023/06/29 11:19:51;;;;;;;29.70;25.35;;;;;;;;;;5034626;28;20378;-65
2023/06/29 11:22:20;;;;;;;29.50;25.50;;;;;;;;;;5052497;28;20381;-65
2023/06/29 11:24:46;;;;;;;30.77;24.13;;;;;;;;;;5052290;28;20472;-65
2023/06/29 11:27:16;;;;;;;29.67;24.95;;;;;;;;;;5052364;28;20377;-66
2023/06/29 11:29:42;;;;;;;31.05;24.60;;;;;;;;;;5035520;28;20378;-67
2023/06/29 11:32:10;;;;;;;31.40;23.67;;;;;;;;;;5052297;28;20913;-66
2023/06/29 11:34:36;;;;;;;28.50;23.70;;;;;;;;;;5034350;28;20447;-66
2023/06/29 11:37:02;;;;;;;29.13;22.85;;;;;;;;;;5052166;28;20786;-66
2023/06/29 11:39:29;;;;;;;25.67;21.25;;;;;;;;;;5034634;28;20546;-66
2023/06/29 11:41:56;;;;;;;26.25;20.30;;;;;;;;;;5034494;28;20381;-65
2023/06/29 11:44:25;;;;;;;24.63;19.80;;;;;;;;;;5034926;28;20386;-67
2023/06/29 11:46:52;;;;;;;23.70;19.85;;;;;;;;;;5034712;28;20486;-67
2023/06/29 11:49:19;;;;;;;22.73;19.00;;;;;;;;;;5053179;28;20405;-65
2023/06/29 11:51:45;;;;;;;21.98;18.85;;;;;;;;;;5052850;28;20378;-66
2023/06/29 11:54:11;;;;;;;24.80;18.80;;;;;;;;;;5052724;28;20785;-65
2023/06/29 11:56:38;;;;;;;20.70;18.50;;;;;;;;;;5053531;28;20396;-66
2023/06/29 11:59:12;;;;;;;20.83;18.50;;;;;;;;;;5053229;28;20513;-67
2023/06/29 12:01:38;;;;;;;21.77;18.70;;;;;;;;;;5052502;28;20408;-67
2023/06/29 12:04:05;;;;;;;20.30;18.10;;;;;;;;;;5035216;28;20384;-66
2023/06/29 12:06:31;;;;;;;21.97;18.60;;;;;;;;;;5056009;28;20395;-68
2023/06/29 12:08:57;;;;;;;23.08;18.02;;;;;;;;;;5038405;28;20377;-67
2023/06/29 12:11:25;;;;;;;23.70;18.23;;;;;;;;;;5056085;28;20385;-66
2023/06/29 12:13:51;;;;;;;19.65;17.08;;;;;;;;;;5056106;28;20381;-67
2023/06/29 12:16:18;;;;;;;22.20;17.40;;;;;;;;;;5056263;28;20377;-67
2023/06/29 12:18:44;;;;;;;19.40;17.30;;;;;;;;;;5038114;28;20941;-67
2023/06/29 12:21:10;;;;;;;21.05;17.52;;;;;;;;;;5056229;28;20863;-66
2023/06/29 12:23:36;;;;;;;23.20;17.70;;;;;;;;;;5037817;28;20456;-67
2023/06/29 12:26:02;;;;;;;19.00;16.60;;;;;;;;;;5056100;28;20377;-68
2023/06/29 12:28:28;;;;;;;22.08;17.83;;;;;;;;;;5056198;28;20837;-67
2023/06/29 12:30:54;;;;;;;19.13;17.13;;;;;;;;;;5037890;28;20450;-68
2023/06/29 12:33:20;;;;;;;19.02;16.85;;;;;;;;;;5055813;28;20473;-67
2023/06/29 12:35:46;;;;;;;18.55;16.65;;;;;;;;;;5055716;28;20381;-69
2023/06/29 12:38:12;;;;;;;20.45;17.27;;;;;;;;;;5038049;28;20419;-65
2023/06/29 12:40:38;;;;;;;19.13;16.65;;;;;;;;;;5056393;28;20916;-65
2023/06/29 12:43:04;;;;;;;18.05;15.50;;;;;;;;;;5037365;28;20380;-65
2023/06/29 12:45:30;;;;;;;19.85;16.27;;;;;;;;;;5055141;28;20388;-66
2023/06/29 12:47:56;;;;;;;18.17;15.88;;;;;;;;;;5055295;28;20389;-65
2023/06/29 12:50:22;;;;;;;18.70;16.48;;;;;;;;;;5055402;28;20415;-65
2023/06/29 12:52:48;;;;;;;17.65;15.70;;;;;;;;;;5055363;28;20409;-66
2023/06/29 12:55:15;;;;;;;18.97;15.70;;;;;;;;;;5037365;28;20441;-67
2023/06/29 12:57:43;;;;;;;19.10;15.93;;;;;;;;;;5055887;28;20416;-66
2023/06/29 13:00:09;;;;;;;18.85;15.70;;;;;;;;;;5055449;28;20381;-67
2023/06/29 13:02:35;;;;;;;17.08;15.27;;;;;;;;;;5055305;28;20375;-67
2023/06/29 13:05:02;;;;;;;17.70;15.85;;;;;;;;;;5037116;28;20369;-66
2023/06/29 13:07:28;;;;;;;18.05;16.15;;;;;;;;;;5055299;28;20389;-66
2023/06/29 13:09:54;;;;;;;17.98;15.90;;;;;;;;;;5036941;28;20922;-66
2023/06/29 13:12:20;;;;;;;19.90;16.02;;;;;;;;;;5037850;28;20395;-66
2023/06/29 13:14:47;;;;;;;18.05;16.17;;;;;;;;;;5037029;28;20468;-67
2023/06/29 13:17:14;;;;;;;18.48;16.42;;;;;;;;;;5053905;28;20474;-66
2023/06/29 13:19:42;;;;;;;19.43;16.87;;;;;;;;;;5038732;28;20899;-66
2023/06/29 13:22:08;;;;;;;19.77;16.67;;;;;;;;;;5037578;28;20464;-67
2023/06/29 13:24:34;;;;;;;19.02;16.77;;;;;;;;;;5054747;28;20891;-68
2023/06/29 13:27:01;;;;;;;20.00;17.33;;;;;;;;;;5054975;28;20917;-67
2023/06/29 13:29:27;;;;;;;18.75;16.75;;;;;;;;;;5037048;28;20436;-67
2023/06/29 13:31:53;;;;;;;20.08;17.85;;;;;;;;;;5055234;28;20465;-67
2023/06/29 13:34:18;;;;;;;19.38;17.23;;;;;;;;;;5054777;28;20386;-67
2023/06/29 13:36:45;;;;;;;18.17;16.08;;;;;;;;;;5036663;28;20385;-68
2023/06/29 13:39:11;;;;;;;18.67;16.77;;;;;;;;;;5054981;28;20409;-67
2023/06/29 13:41:41;;;;;;;17.57;15.77;;;;;;;;;;5054512;28;20465;-67
2023/06/29 13:44:08;;;;;;;18.33;15.30;;;;;;;;;;5036347;28;20401;-67
2023/06/29 13:46:35;;;;;;;16.42;14.70;;;;;;;;;;5036331;28;20397;-67
2023/06/29 13:49:01;;;;;;;17.23;15.20;;;;;;;;;;5054415;28;20377;-67
2023/06/29 13:51:30;;;;;;;16.98;15.20;;;;;;;;;;5036482;28;20385;-67
2023/06/29 13:53:57;;;;;;;20.33;15.48;;;;;;;;;;5054214;28;20973;-67
2023/06/29 13:56:23;;;;;;;16.75;14.43;;;;;;;;;;5054068;28;20453;-67
2023/06/29 13:58:51;;;;;;;16.38;14.68;;;;;;;;;;5053940;28;20427;-67
2023/06/29 14:01:17;;;;;;;16.27;14.57;;;;;;;;;;5054488;28;20381;-69
2023/06/29 14:03:42;;;;;;;16.38;14.65;;;;;;;;;;5053834;28;20369;-67
2023/06/29 14:06:08;;;;;;;16.10;14.40;;;;;;;;;;5054001;28;20381;-68
2023/06/29 14:08:34;;;;;;;18.70;16.73;;;;;;;;;;5054112;28;20381;-67
2023/06/29 14:11:03;;;;;;;16.50;14.75;;;;;;;;;;5036049;28;20378;-68
2023/06/29 14:13:30;;;;;;;19.80;14.60;;;;;;;;;;5035975;28;20381;-67
2023/06/29 14:15:57;;;;;;;17.55;14.43;;;;;;;;;;5035837;28;20378;-68
2023/06/29 14:18:23;;;;;;;16.60;14.90;;;;;;;;;;5053942;28;20406;-67